CheckWX is a tool to help pilots better visualize weather data.  It is not intended as a substitute for an official pre-flight weather briefing.

06:47:51 UTC

KSBY METAR
Salisbury-Ocean City Wicomico Regional Airport
Salisbury, Maryland, USA
Current

54 mins ago

KSBY 210554Z AUTO 31006KT 10SM CLR 06/00 A3017 RMK AO2 SLP217 T00560000 10083 20050 53002
Observed
Nov-21 @ 05:54 UTC
Wind
  • 310° at 6 KTS
Visibility
10 SM
Flight Rules
VFR
Cloud Levels
  • Clear skies
Temperature
C / 43°F
Dewpoint
C / 32°F
Humidity
66%
Altimeter
30.17" Hg
Pressure
1021.72 hPa
Previous

2 hours ago

KSBY 210454Z AUTO 31005KT 10SM CLR 06/00 A3016 RMK AO2 SLP216 T00560000 401280044
Observed
Nov-21 @ 04:54 UTC
Wind
  • 310° at 5 KTS
Visibility
10 SM
Flight Rules
VFR
Cloud Levels
  • Clear skies
Temperature
C / 43°F
Dewpoint
C / 32°F
Humidity
66%
Altimeter
30.16" Hg
Pressure
1021.32 hPa
Previous

3 hours ago

KSBY 210354Z AUTO 31005KT 10SM CLR 07/00 A3016 RMK AO2 SLP214 T00670000
Observed
Nov-21 @ 03:54 UTC
Wind
  • 310° at 5 KTS
Visibility
10 SM
Flight Rules
VFR
Cloud Levels
  • Clear skies
Temperature
C / 45°F
Dewpoint
C / 32°F
Humidity
61%
Altimeter
30.16" Hg
Pressure
1021.32 hPa